Ansac Moon Bear — 3FKS5 — position and weather

sailwx.info

Track history (hours):
 
Tides and Currents Weather Stations Pressure Air Temp Water Temp Dewpoint Dewpoint Depression Visibility Wind Speed Wind Dir Waves Ship Positions

Ansac Moon Bear

Last reported at 2017-Dec-16 21:00 UTC. Time now 2017-Dec-17 02:19 UTC.
Position N 44°48' W 140°18'.

Length 180 m; draft 10 m.

Type: Cargo ship. MMSI: 353751000.

Wind from 260 at 36 knots

Barometer 1019.0 mb
Air temperature 13.0 ° C
Visibility: greater than 10.8 NM
Dewpoint 11.3 ° C
Water temperature 11.0 ° C

Date/timePositionNaut miles runAvg speedWind from/ knotsBaromVisibWave heightAir tempDewpointWater temp
2017-Dec-16 21:00N 44°48' W 140°18'26210.9 260 / 361019.010.8 13.011.311.0
2017-Dec-15 21:00N 45°30' W 134°12'28711.5 290 / 161026.010.8 13.011.311.0
2017-Dec-14 20:00N 46°06' W 127°24'6012.0 300 / 141022.010.8 13.011.312.0
2017-Dec-14 15:00N 46°11' W 125°58'612.2
2017-Dec-14 14:31N 46°11' W 125°49'612.1
2017-Dec-14 14:00N 46°11' W 125°40'612.3
2017-Dec-14 13:30N 46°11' W 125°32'612.2
2017-Dec-14 13:00N 46°11' W 125°23'612.0
2017-Dec-14 12:31N 46°11' W 125°14'612.0
2017-Dec-14 12:00N 46°11' W 125°05'612.1
2017-Dec-14 11:31N 46°11' W 124°57'612.4
2017-Dec-14 11:01N 46°12' W 124°48'612.6
2017-Dec-14 10:30N 46°13' W 124°39'612.3
2017-Dec-14 10:01N 46°14' W 124°30'712.0
2017-Dec-14 09:25N 46°13' W 124°19'411.2
2017-Dec-14 09:01N 46°13' W 124°13'510.0
2017-Dec-14 08:30N 46°15' W 124°06'5 9.8
2017-Dec-14 08:00N 46°14' W 123°59'5 9.7
2017-Dec-14 07:30N 46°11' W 123°53'4 8.9
2017-Dec-14 07:01N 46°13' W 123°47'611.3
2017-Dec-14 06:30N 46°15' W 123°40'611.5
2017-Dec-14 06:00N 46°16' W 123°31'5 9.6
2017-Dec-14 05:30N 46°13' W 123°25'510.6
2017-Dec-14 05:00N 46°09' W 123°22'613.0
2017-Dec-14 04:30N 46°10' W 123°13'611.3
2017-Dec-14 04:00N 46°10' W 123°05'612.4
2017-Dec-14 03:30N 46°06' W 122°57'510.8
2017-Dec-14 03:00N 46°02' W 122°53'611.9
2017-Dec-14 02:30N 45°57' W 122°48'713.0
2017-Dec-14 02:01N 45°50' W 122°47'612.8
2017-Dec-14 01:30N 45°44' W 122°46'510.6
2017-Dec-14 01:00N 45°39' W 122°47'3 5.1
2017-Dec-14 00:30N 45°36' W 122°46'0 0.0
2017-Dec-13 23:52N 45°36' W 122°46'0 0.0
2017-Dec-13 23:28N 45°36' W 122°46'0 0.0
2017-Dec-13 22:59N 45°36' W 122°46'0 0.0
2017-Dec-13 22:28N 45°36' W 122°46'0 0.0
2017-Dec-13 21:58N 45°36' W 122°46'0 0.0
2017-Dec-13 21:28N 45°36' W 122°46'0 0.0
2017-Dec-13 20:58N 45°36' W 122°46'0 0.0
2017-Dec-13 20:28N 45°36' W 122°46'0 0.0
2017-Dec-13 19:58N 45°36' W 122°46'0 0.0
2017-Dec-13 19:25N 45°36' W 122°46'0 0.0
2017-Dec-13 18:58N 45°36' W 122°46'0 0.0
2017-Dec-13 18:28N 45°36' W 122°46'0 0.0
2017-Dec-13 17:58N 45°36' W 122°46'0 0.0
2017-Dec-13 17:28N 45°36' W 122°46'0 0.0
2017-Dec-13 16:58N 45°36' W 122°46'0 0.0
2017-Dec-13 16:28N 45°36' W 122°46'0 0.0
2017-Dec-13 15:55N 45°36' W 122°46'0 0.0
2017-Dec-13 15:28N 45°36' W 122°46'0 0.0
2017-Dec-13 14:58N 45°36' W 122°46'0 0.0
2017-Dec-13 14:28N 45°36' W 122°46'0 0.0
2017-Dec-13 13:58N 45°36' W 122°46'0 0.0
2017-Dec-13 13:22N 45°36' W 122°46'0 0.0
2017-Dec-13 12:52N 45°36' W 122°46'0 0.0
2017-Dec-13 12:25N 45°36' W 122°46'0 0.0
2017-Dec-13 11:58N 45°36' W 122°46'0 0.0
2017-Dec-13 11:28N 45°36' W 122°46'0 0.0
2017-Dec-13 10:58N 45°36' W 122°46'0 0.0
2017-Dec-13 10:22N 45°36' W 122°46'0 0.0
2017-Dec-13 09:55N 45°36' W 122°46'0 0.0
2017-Dec-13 09:28N 45°36' W 122°46'0 0.0
2017-Dec-13 08:55N 45°36' W 122°46'0 0.0
2017-Dec-13 08:25N 45°36' W 122°46'0 0.0
2017-Dec-13 07:43N 45°36' W 122°46'0 0.0
2017-Dec-13 07:28N 45°36' W 122°46'0 0.0
2017-Dec-13 06:58N 45°36' W 122°46'0 0.0
2017-Dec-13 06:25N 45°36' W 122°46'0 0.1
2017-Dec-13 05:58N 45°36' W 122°47'0 0.0
2017-Dec-13 05:28N 45°36' W 122°47'0 0.0
2017-Dec-13 04:58N 45°36' W 122°47'0 0.0
2017-Dec-13 04:28N 45°36' W 122°47'0 0.0
2017-Dec-13 03:58N 45°36' W 122°47'0 0.0
2017-Dec-13 03:28N 45°36' W 122°47'0 0.0
2017-Dec-13 02:52N 45°36' W 122°47'0 0.0
2017-Dec-13 02:28N 45°36' W 122°47'0 0.0
2017-Dec-13 01:22N 45°36' W 122°47'0 0.1
2017-Dec-13 00:58N 45°36' W 122°46'0 0.0
2017-Dec-13 00:25N 45°36' W 122°46'0 0.0
2017-Dec-12 23:58N 45°36' W 122°46'0 0.0
2017-Dec-12 23:28N 45°36' W 122°46'0 0.0
2017-Dec-12 22:58N 45°36' W 122°46'0 0.0
2017-Dec-12 22:28N 45°36' W 122°46'0 0.0
2017-Dec-12 21:58N 45°36' W 122°46'0 0.0
2017-Dec-12 21:28N 45°36' W 122°46'0 0.0
2017-Dec-12 20:58N 45°36' W 122°46'0 0.0
2017-Dec-12 20:28N 45°36' W 122°46'0 0.0
2017-Dec-12 19:58N 45°36' W 122°46'0 0.0
2017-Dec-12 19:28N 45°36' W 122°46'0 0.0
2017-Dec-12 18:58N 45°36' W 122°46'0 0.1
2017-Dec-12 18:28N 45°36' W 122°47'0 0.0
2017-Dec-12 17:58N 45°36' W 122°47'0 0.0
2017-Dec-12 17:28N 45°36' W 122°47'0 0.0
2017-Dec-12 16:58N 45°36' W 122°47'0 0.0
2017-Dec-12 16:28N 45°36' W 122°47'0 0.0
2017-Dec-12 15:58N 45°36' W 122°47'0 0.0
2017-Dec-12 15:25N 45°36' W 122°47'0 0.0
2017-Dec-12 14:37N 45°36' W 122°47'0 0.0
2017-Dec-12 14:25N 45°36' W 122°47'0 0.0
2017-Dec-12 13:58N 45°36' W 122°47'0 0.0
2017-Dec-12 13:28N 45°36' W 122°47'0 0.0
2017-Dec-12 12:49N 45°36' W 122°47'0 0.0
2017-Dec-12 12:28N 45°36' W 122°47'0 0.0
2017-Dec-12 11:58N 45°36' W 122°47'0 0.0
2017-Dec-12 11:22N 45°36' W 122°47'0 0.0
2017-Dec-12 10:58N 45°36' W 122°47'0 0.0
2017-Dec-12 10:28N 45°36' W 122°47'0 0.0
2017-Dec-12 09:49N 45°36' W 122°47'0 0.0
2017-Dec-12 09:28N 45°36' W 122°47'0 0.0
2017-Dec-12 08:58N 45°36' W 122°47'0 0.0
2017-Dec-12 08:25N 45°36' W 122°47'0 0.0
2017-Dec-12 07:52N 45°36' W 122°47'0 0.0
2017-Dec-12 07:28N 45°36' W 122°47'0 0.0
2017-Dec-12 06:55N 45°36' W 122°47'0 0.0
2017-Dec-12 05:10N 45°36' W 122°47'0 0.0
2017-Dec-12 04:58N 45°36' W 122°47'0 0.0
2017-Dec-12 04:19N 45°36' W 122°47'0 0.0
2017-Dec-12 03:58N 45°36' W 122°47'0 0.0
2017-Dec-12 03:28N 45°36' W 122°47'0 0.0
2017-Dec-12 02:59N 45°36' W 122°47'0 0.0
2017-Dec-12 02:25N 45°36' W 122°47'0 0.0
2017-Dec-12 01:58N 45°36' W 122°47'0 0.0
2017-Dec-12 01:22N 45°36' W 122°47'0 0.0
2017-Dec-12 00:55N 45°36' W 122°47'0 0.0
2017-Dec-12 00:31N 45°36' W 122°47'0 0.0
2017-Dec-12 00:01N 45°36' W 122°47'1 2.4
2017-Dec-11 23:31N 45°37' W 122°47'4 8.0
2017-Dec-11 23:00N 45°41' W 122°47'0 0.8
2017-Dec-11 22:28N 45°41' W 122°46'0 0.0
2017-Dec-11 21:58N 45°41' W 122°46'0 0.0
2017-Dec-11 21:28N 45°41' W 122°46'0 0.0
2017-Dec-11 20:58N 45°41' W 122°46'0 0.0
2017-Dec-11 20:28N 45°41' W 122°46'0 0.0
2017-Dec-11 19:58N 45°41' W 122°46'0 0.0
2017-Dec-11 19:29N 45°41' W 122°46'0 0.0
2017-Dec-11 18:58N 45°41' W 122°46'0 0.0
2017-Dec-11 18:28N 45°41' W 122°46'0 0.0
2017-Dec-11 17:58N 45°41' W 122°46'0 0.0
2017-Dec-11 17:28N 45°41' W 122°46'0 0.0
2017-Dec-11 16:58N 45°41' W 122°46'0 0.0
2017-Dec-11 16:28N 45°41' W 122°46'0 0.0
2017-Dec-11 15:58N 45°41' W 122°46'0 0.0
2017-Dec-11 15:25N 45°41' W 122°46'0 0.0
2017-Dec-11 14:58N 45°41' W 122°46'0 0.0
2017-Dec-11 14:28N 45°41' W 122°46'0 0.0
2017-Dec-11 13:58N 45°41' W 122°46'0 0.0
2017-Dec-11 13:28N 45°41' W 122°46'0 0.0
2017-Dec-11 12:58N 45°41' W 122°46'0 0.0
2017-Dec-11 12:28N 45°41' W 122°46'0 0.0
2017-Dec-11 11:58N 45°41' W 122°46'0 0.0
2017-Dec-11 11:28N 45°41' W 122°46'0 0.0
2017-Dec-11 10:58N 45°41' W 122°46'0 0.0
2017-Dec-11 10:28N 45°41' W 122°46'0 0.0
2017-Dec-11 09:58N 45°41' W 122°46'0 0.0
2017-Dec-11 09:28N 45°41' W 122°46'0 0.0
2017-Dec-11 08:58N 45°41' W 122°46'0 0.0
2017-Dec-11 08:28N 45°41' W 122°46'0 0.0
2017-Dec-11 07:49N 45°41' W 122°46'0 0.0
2017-Dec-11 07:28N 45°41' W 122°46'0 0.0
2017-Dec-11 06:58N 45°41' W 122°46'0 0.0
2017-Dec-11 06:28N 45°41' W 122°46'0 0.0
2017-Dec-11 05:55N 45°41' W 122°46'0 0.0
2017-Dec-11 05:25N 45°41' W 122°46'0 0.0
2017-Dec-11 04:52N 45°41' W 122°46'0 0.0
2017-Dec-11 04:28N 45°41' W 122°46'0 0.0
2017-Dec-11 03:58N 45°41' W 122°46'0 0.0
2017-Dec-11 03:28N 45°41' W 122°46'0 0.0
2017-Dec-11 02:58N 45°41' W 122°46'0 0.0
2017-Dec-11 02:28N 45°41' W 122°46'0 0.0
2017-Dec-11 01:58N 45°41' W 122°46'0 0.0
2017-Dec-11 01:28N 45°41' W 122°46'0 0.0
2017-Dec-11 00:58N 45°41' W 122°46'0 0.0
2017-Dec-11 00:28N 45°41' W 122°46'0 0.0
2017-Dec-10 23:58N 45°41' W 122°46'0 0.0
2017-Dec-10 23:28N 45°41' W 122°46'0 0.0
2017-Dec-10 22:58N 45°41' W 122°46'0 0.0
2017-Dec-10 22:28N 45°41' W 122°46'0 0.0
2017-Dec-10 21:58N 45°41' W 122°46'0 0.0
2017-Dec-10 21:25N 45°41' W 122°46'0 0.0
2017-Dec-10 20:58N 45°41' W 122°46'0 0.0
2017-Dec-10 20:28N 45°41' W 122°46'0 0.0
2017-Dec-10 19:58N 45°41' W 122°46'0 0.0
2017-Dec-10 19:16N 45°41' W 122°46'0 0.0
2017-Dec-10 18:58N 45°41' W 122°46'0 0.0
2017-Dec-10 18:28N 45°41' W 122°46'0 0.0
2017-Dec-10 17:58N 45°41' W 122°46'0 0.1
2017-Dec-10 17:28N 45°41' W 122°46'0 0.1
2017-Dec-10 17:01N 45°41' W 122°46'1 2.9
2017-Dec-10 16:31N 45°43' W 122°46'510.8
2017-Dec-10 16:00N 45°48' W 122°47'511.0
2017-Dec-10 15:31N 45°54' W 122°48'610.9
2017-Dec-10 14:56N 45°60' W 122°51'410.0
2017-Dec-10 14:31N 46°04' W 122°53'5 9.2
2017-Dec-10 14:01N 46°06' W 122°58'6 8.5
2017-Dec-10 13:22N 46°10' W 123°05'411.3
2017-Dec-10 13:00N 46°11' W 123°10'611.4
2017-Dec-10 12:31N 46°09' W 123°17'510.0
2017-Dec-10 12:01N 46°10' W 123°24'510.1
2017-Dec-10 11:30N 46°15' W 123°26'510.3
2017-Dec-10 11:01N 46°15' W 123°33'611.3
2017-Dec-10 10:28N 46°15' W 123°42'511.4
2017-Dec-10 10:01N 46°12' W 123°49'4 8.9
2017-Dec-10 09:30N 46°12' W 123°55'510.1
2017-Dec-10 09:00N 46°15' W 124°00'5 9.3
2017-Dec-10 08:31N 46°14' W 124°07'5 9.9
2017-Dec-10 08:00N 46°12' W 124°13'4 8.0
2017-Dec-10 07:30N 46°12' W 124°19'0 0.7
2017-Dec-10 07:00N 46°12' W 124°20'2 4.5
2017-Dec-10 06:30N 46°12' W 124°23'3 6.0
2017-Dec-10 06:00N 46°13' W 124°27'3 5.6
2017-Dec-10 05:30N 46°13' W 124°31'5 9.7
2017-Dec-10 05:00N 46°13' W 124°38'4 8.9
2017-Dec-10 04:31N 46°14' W 124°45'510.9
2017-Dec-10 04:00N 46°14' W 124°52'612.4
2017-Dec-10 03:31N 46°15' W 125°01'612.4
2017-Dec-10 03:01N 46°15' W 125°10'612.6
2017-Dec-10 02:31N 46°16' W 125°19'612.5
2017-Dec-10 02:01N 46°16' W 125°28'612.4
2017-Dec-10 01:30N 46°17' W 125°37'612.6
2017-Dec-10 01:00N 46°17' W 125°46'612.7
2017-Dec-10 00:31N 46°18' W 125°55'712.5
2017-Dec-09 23:59N 46°19' W 126°05'612.3
2017-Dec-09 23:30N 46°19' W 126°13'612.3
2017-Dec-09 23:00N 46°20' W 126°22'611.9
2017-Dec-09 22:30N 46°20' W 126°31'612.1
2017-Dec-09 22:00N 46°21' W 126°39'612.0
2017-Dec-09 21:30N 46°21' W 126°48'611.9
2017-Dec-09 21:00N 46°22' W 126°57'611.9
2017-Dec-09 20:30N 46°22' W 127°05'611.5
2017-Dec-09 20:00N 46°23' W 127°14'5313.7
2017-Dec-09 20:00N 46°18' W 127°12'917.8 150 / 251019.010.8 13.011.312.0
2017-Dec-09 19:30N 46°23' W 127°22'711.6
2017-Dec-09 18:55N 46°24' W 127°32'511.4
2017-Dec-09 18:30N 46°25' W 127°38'611.3
2017-Dec-09 17:59N 46°25' W 127°47'611.3
2017-Dec-09 17:27N 46°26' W 127°56'511.3
2017-Dec-09 17:00N 46°26' W 128°03'611.4
2017-Dec-09 16:30N 46°26' W 128°11'3311.8
2017-Dec-09 13:43N 46°29' W 128°59'311.9
2017-Dec-09 13:30N 46°30' W 129°03'811.6
2017-Dec-09 12:49N 46°32' W 129°14'511.4
2017-Dec-09 12:22N 46°33' W 129°21'411.4
2017-Dec-09 12:00N 46°35' W 129°26'611.3
2017-Dec-09 11:30N 46°36' W 129°34'611.5
2017-Dec-09 11:00N 46°38' W 129°42'611.6
2017-Dec-09 10:30N 46°40' W 129°50'2810.8
2017-Dec-09 07:53N 46°49' W 130°30'511.2
2017-Dec-09 07:29N 46°51' W 130°36'1911.0
2017-Dec-09 05:44N 46°57' W 131°03'310.9
2017-Dec-09 05:28N 46°58' W 131°07'511.1
2017-Dec-09 04:59N 46°59' W 131°14'9210.2
2017-Dec-08 20:00N 47°24' W 133°24'24110.0 150 / 391009.0 5.4 12.012.011.0
2017-Dec-07 20:00N 48°24' W 139°12'208 9.1 150 / 441004.010.8 10.010.0 9.0
2017-Dec-06 21:00N 48°54' W 144°24'   160 / 13999.010.8 8.0 6.0 9.0
Track history (hours):
 
Tides and Currents Weather Stations Pressure Air Temp Water Temp Dewpoint Dewpoint Depression Visibility Wind Speed Wind Dir Waves Ship Positions

Ansac Moon Bear

Last reported at 2017-Dec-16 21:00 UTC. Time now 2017-Dec-17 02:19 UTC.
Position N 44°48' W 140°18'.

Length 180 m; draft 10 m.

Type: Cargo ship. MMSI: 353751000.

Wind from 260 at 36 knots

Barometer 1019.0 mb
Air temperature 13.0 ° C
Visibility: greater than 10.8 NM
Dewpoint 11.3 ° C
Water temperature 11.0 ° C

Date/timePositionNaut miles runAvg speedWind from/ knotsBaromVisibWave heightAir tempDewpointWater temp
2017-Dec-16 21:00N 44°48' W 140°18'26210.9 260 / 361019.010.8 13.011.311.0
2017-Dec-15 21:00N 45°30' W 134°12'28711.5 290 / 161026.010.8 13.011.311.0
2017-Dec-14 20:00N 46°06' W 127°24'6012.0 300 / 141022.010.8 13.011.312.0
2017-Dec-14 15:00N 46°11' W 125°58'612.2
2017-Dec-14 14:31N 46°11' W 125°49'612.1
2017-Dec-14 14:00N 46°11' W 125°40'612.3
2017-Dec-14 13:30N 46°11' W 125°32'612.2
2017-Dec-14 13:00N 46°11' W 125°23'612.0
2017-Dec-14 12:31N 46°11' W 125°14'612.0
2017-Dec-14 12:00N 46°11' W 125°05'612.1
2017-Dec-14 11:31N 46°11' W 124°57'612.4
2017-Dec-14 11:01N 46°12' W 124°48'612.6
2017-Dec-14 10:30N 46°13' W 124°39'612.3
2017-Dec-14 10:01N 46°14' W 124°30'712.0
2017-Dec-14 09:25N 46°13' W 124°19'411.2
2017-Dec-14 09:01N 46°13' W 124°13'510.0
2017-Dec-14 08:30N 46°15' W 124°06'5 9.8
2017-Dec-14 08:00N 46°14' W 123°59'5 9.7
2017-Dec-14 07:30N 46°11' W 123°53'4 8.9
2017-Dec-14 07:01N 46°13' W 123°47'611.3
2017-Dec-14 06:30N 46°15' W 123°40'611.5
2017-Dec-14 06:00N 46°16' W 123°31'5 9.6
2017-Dec-14 05:30N 46°13' W 123°25'510.6
2017-Dec-14 05:00N 46°09' W 123°22'613.0
2017-Dec-14 04:30N 46°10' W 123°13'611.3
2017-Dec-14 04:00N 46°10' W 123°05'612.4
2017-Dec-14 03:30N 46°06' W 122°57'510.8
2017-Dec-14 03:00N 46°02' W 122°53'611.9
2017-Dec-14 02:30N 45°57' W 122°48'713.0
2017-Dec-14 02:01N 45°50' W 122°47'612.8
2017-Dec-14 01:30N 45°44' W 122°46'510.6
2017-Dec-14 01:00N 45°39' W 122°47'3 5.1
2017-Dec-14 00:30N 45°36' W 122°46'0 0.0
2017-Dec-13 23:52N 45°36' W 122°46'0 0.0
2017-Dec-13 23:28N 45°36' W 122°46'0 0.0
2017-Dec-13 22:59N 45°36' W 122°46'0 0.0
2017-Dec-13 22:28N 45°36' W 122°46'0 0.0
2017-Dec-13 21:58N 45°36' W 122°46'0 0.0
2017-Dec-13 21:28N 45°36' W 122°46'0 0.0
2017-Dec-13 20:58N 45°36' W 122°46'0 0.0
2017-Dec-13 20:28N 45°36' W 122°46'0 0.0
2017-Dec-13 19:58N 45°36' W 122°46'0 0.0
2017-Dec-13 19:25N 45°36' W 122°46'0 0.0
2017-Dec-13 18:58N 45°36' W 122°46'0 0.0
2017-Dec-13 18:28N 45°36' W 122°46'0 0.0
2017-Dec-13 17:58N 45°36' W 122°46'0 0.0
2017-Dec-13 17:28N 45°36' W 122°46'0 0.0
2017-Dec-13 16:58N 45°36' W 122°46'0 0.0
2017-Dec-13 16:28N 45°36' W 122°46'0 0.0
2017-Dec-13 15:55N 45°36' W 122°46'0 0.0
2017-Dec-13 15:28N 45°36' W 122°46'0 0.0
2017-Dec-13 14:58N 45°36' W 122°46'0 0.0
2017-Dec-13 14:28N 45°36' W 122°46'0 0.0
2017-Dec-13 13:58N 45°36' W 122°46'0 0.0
2017-Dec-13 13:22N 45°36' W 122°46'0 0.0
2017-Dec-13 12:52N 45°36' W 122°46'0 0.0
2017-Dec-13 12:25N 45°36' W 122°46'0 0.0
2017-Dec-13 11:58N 45°36' W 122°46'0 0.0
2017-Dec-13 11:28N 45°36' W 122°46'0 0.0
2017-Dec-13 10:58N 45°36' W 122°46'0 0.0
2017-Dec-13 10:22N 45°36' W 122°46'0 0.0
2017-Dec-13 09:55N 45°36' W 122°46'0 0.0
2017-Dec-13 09:28N 45°36' W 122°46'0 0.0
2017-Dec-13 08:55N 45°36' W 122°46'0 0.0
2017-Dec-13 08:25N 45°36' W 122°46'0 0.0
2017-Dec-13 07:43N 45°36' W 122°46'0 0.0
2017-Dec-13 07:28N 45°36' W 122°46'0 0.0
2017-Dec-13 06:58N 45°36' W 122°46'0 0.0
2017-Dec-13 06:25N 45°36' W 122°46'0 0.1
2017-Dec-13 05:58N 45°36' W 122°47'0 0.0
2017-Dec-13 05:28N 45°36' W 122°47'0 0.0
2017-Dec-13 04:58N 45°36' W 122°47'0 0.0
2017-Dec-13 04:28N 45°36' W 122°47'0 0.0
2017-Dec-13 03:58N 45°36' W 122°47'0 0.0
2017-Dec-13 03:28N 45°36' W 122°47'0 0.0
2017-Dec-13 02:52N 45°36' W 122°47'0 0.0
2017-Dec-13 02:28N 45°36' W 122°47'0 0.0
2017-Dec-13 01:22N 45°36' W 122°47'0 0.1
2017-Dec-13 00:58N 45°36' W 122°46'0 0.0
2017-Dec-13 00:25N 45°36' W 122°46'0 0.0
2017-Dec-12 23:58N 45°36' W 122°46'0 0.0
2017-Dec-12 23:28N 45°36' W 122°46'0 0.0
2017-Dec-12 22:58N 45°36' W 122°46'0 0.0
2017-Dec-12 22:28N 45°36' W 122°46'0 0.0
2017-Dec-12 21:58N 45°36' W 122°46'0 0.0
2017-Dec-12 21:28N 45°36' W 122°46'0 0.0
2017-Dec-12 20:58N 45°36' W 122°46'0 0.0
2017-Dec-12 20:28N 45°36' W 122°46'0 0.0
2017-Dec-12 19:58N 45°36' W 122°46'0 0.0
2017-Dec-12 19:28N 45°36' W 122°46'0 0.0
2017-Dec-12 18:58N 45°36' W 122°46'0 0.1
2017-Dec-12 18:28N 45°36' W 122°47'0 0.0
2017-Dec-12 17:58N 45°36' W 122°47'0 0.0
2017-Dec-12 17:28N 45°36' W 122°47'0 0.0
2017-Dec-12 16:58N 45°36' W 122°47'0 0.0
2017-Dec-12 16:28N 45°36' W 122°47'0 0.0
2017-Dec-12 15:58N 45°36' W 122°47'0 0.0
2017-Dec-12 15:25N 45°36' W 122°47'0 0.0
2017-Dec-12 14:37N 45°36' W 122°47'0 0.0
2017-Dec-12 14:25N 45°36' W 122°47'0 0.0
2017-Dec-12 13:58N 45°36' W 122°47'0 0.0
2017-Dec-12 13:28N 45°36' W 122°47'0 0.0
2017-Dec-12 12:49N 45°36' W 122°47'0 0.0
2017-Dec-12 12:28N 45°36' W 122°47'0 0.0
2017-Dec-12 11:58N 45°36' W 122°47'0 0.0
2017-Dec-12 11:22N 45°36' W 122°47'0 0.0
2017-Dec-12 10:58N 45°36' W 122°47'0 0.0
2017-Dec-12 10:28N 45°36' W 122°47'0 0.0
2017-Dec-12 09:49N 45°36' W 122°47'0 0.0
2017-Dec-12 09:28N 45°36' W 122°47'0 0.0
2017-Dec-12 08:58N 45°36' W 122°47'0 0.0
2017-Dec-12 08:25N 45°36' W 122°47'0 0.0
2017-Dec-12 07:52N 45°36' W 122°47'0 0.0
2017-Dec-12 07:28N 45°36' W 122°47'0 0.0
2017-Dec-12 06:55N 45°36' W 122°47'0 0.0
2017-Dec-12 05:10N 45°36' W 122°47'0 0.0
2017-Dec-12 04:58N 45°36' W 122°47'0 0.0
2017-Dec-12 04:19N 45°36' W 122°47'0 0.0
2017-Dec-12 03:58N 45°36' W 122°47'0 0.0
2017-Dec-12 03:28N 45°36' W 122°47'0 0.0
2017-Dec-12 02:59N 45°36' W 122°47'0 0.0
2017-Dec-12 02:25N 45°36' W 122°47'0 0.0
2017-Dec-12 01:58N 45°36' W 122°47'0 0.0
2017-Dec-12 01:22N 45°36' W 122°47'0 0.0
2017-Dec-12 00:55N 45°36' W 122°47'0 0.0
2017-Dec-12 00:31N 45°36' W 122°47'0 0.0
2017-Dec-12 00:01N 45°36' W 122°47'1 2.4
2017-Dec-11 23:31N 45°37' W 122°47'4 8.0
2017-Dec-11 23:00N 45°41' W 122°47'0 0.8
2017-Dec-11 22:28N 45°41' W 122°46'0 0.0
2017-Dec-11 21:58N 45°41' W 122°46'0 0.0
2017-Dec-11 21:28N 45°41' W 122°46'0 0.0
2017-Dec-11 20:58N 45°41' W 122°46'0 0.0
2017-Dec-11 20:28N 45°41' W 122°46'0 0.0
2017-Dec-11 19:58N 45°41' W 122°46'0 0.0
2017-Dec-11 19:29N 45°41' W 122°46'0 0.0
2017-Dec-11 18:58N 45°41' W 122°46'0 0.0
2017-Dec-11 18:28N 45°41' W 122°46'0 0.0
2017-Dec-11 17:58N 45°41' W 122°46'0 0.0
2017-Dec-11 17:28N 45°41' W 122°46'0 0.0
2017-Dec-11 16:58N 45°41' W 122°46'0 0.0
2017-Dec-11 16:28N 45°41' W 122°46'0 0.0
2017-Dec-11 15:58N 45°41' W 122°46'0 0.0
2017-Dec-11 15:25N 45°41' W 122°46'0 0.0
2017-Dec-11 14:58N 45°41' W 122°46'0 0.0
2017-Dec-11 14:28N 45°41' W 122°46'0 0.0
2017-Dec-11 13:58N 45°41' W 122°46'0 0.0
2017-Dec-11 13:28N 45°41' W 122°46'0 0.0
2017-Dec-11 12:58N 45°41' W 122°46'0 0.0
2017-Dec-11 12:28N 45°41' W 122°46'0 0.0
2017-Dec-11 11:58N 45°41' W 122°46'0 0.0
2017-Dec-11 11:28N 45°41' W 122°46'0 0.0
2017-Dec-11 10:58N 45°41' W 122°46'0 0.0
2017-Dec-11 10:28N 45°41' W 122°46'0 0.0
2017-Dec-11 09:58N 45°41' W 122°46'0 0.0
2017-Dec-11 09:28N 45°41' W 122°46'0 0.0
2017-Dec-11 08:58N 45°41' W 122°46'0 0.0
2017-Dec-11 08:28N 45°41' W 122°46'0 0.0
2017-Dec-11 07:49N 45°41' W 122°46'0 0.0
2017-Dec-11 07:28N 45°41' W 122°46'0 0.0
2017-Dec-11 06:58N 45°41' W 122°46'0 0.0
2017-Dec-11 06:28N 45°41' W 122°46'0 0.0
2017-Dec-11 05:55N 45°41' W 122°46'0 0.0
2017-Dec-11 05:25N 45°41' W 122°46'0 0.0
2017-Dec-11 04:52N 45°41' W 122°46'0 0.0
2017-Dec-11 04:28N 45°41' W 122°46'0 0.0
2017-Dec-11 03:58N 45°41' W 122°46'0 0.0
2017-Dec-11 03:28N 45°41' W 122°46'0 0.0
2017-Dec-11 02:58N 45°41' W 122°46'0 0.0
2017-Dec-11 02:28N 45°41' W 122°46'0 0.0
2017-Dec-11 01:58N 45°41' W 122°46'0 0.0
2017-Dec-11 01:28N 45°41' W 122°46'0 0.0
2017-Dec-11 00:58N 45°41' W 122°46'0 0.0
2017-Dec-11 00:28N 45°41' W 122°46'0 0.0
2017-Dec-10 23:58N 45°41' W 122°46'0 0.0
2017-Dec-10 23:28N 45°41' W 122°46'0 0.0
2017-Dec-10 22:58N 45°41' W 122°46'0 0.0
2017-Dec-10 22:28N 45°41' W 122°46'0 0.0
2017-Dec-10 21:58N 45°41' W 122°46'0 0.0
2017-Dec-10 21:25N 45°41' W 122°46'0 0.0
2017-Dec-10 20:58N 45°41' W 122°46'0 0.0
2017-Dec-10 20:28N 45°41' W 122°46'0 0.0
2017-Dec-10 19:58N 45°41' W 122°46'0 0.0
2017-Dec-10 19:16N 45°41' W 122°46'0 0.0
2017-Dec-10 18:58N 45°41' W 122°46'0 0.0
2017-Dec-10 18:28N 45°41' W 122°46'0 0.0
2017-Dec-10 17:58N 45°41' W 122°46'0 0.1
2017-Dec-10 17:28N 45°41' W 122°46'0 0.1
2017-Dec-10 17:01N 45°41' W 122°46'1 2.9
2017-Dec-10 16:31N 45°43' W 122°46'510.8
2017-Dec-10 16:00N 45°48' W 122°47'511.0
2017-Dec-10 15:31N 45°54' W 122°48'610.9
2017-Dec-10 14:56N 45°60' W 122°51'410.0
2017-Dec-10 14:31N 46°04' W 122°53'5 9.2
2017-Dec-10 14:01N 46°06' W 122°58'6 8.5
2017-Dec-10 13:22N 46°10' W 123°05'411.3
2017-Dec-10 13:00N 46°11' W 123°10'611.4
2017-Dec-10 12:31N 46°09' W 123°17'510.0
2017-Dec-10 12:01N 46°10' W 123°24'510.1
2017-Dec-10 11:30N 46°15' W 123°26'510.3
2017-Dec-10 11:01N 46°15' W 123°33'611.3
2017-Dec-10 10:28N 46°15' W 123°42'511.4
2017-Dec-10 10:01N 46°12' W 123°49'4 8.9
2017-Dec-10 09:30N 46°12' W 123°55'510.1
2017-Dec-10 09:00N 46°15' W 124°00'5 9.3
2017-Dec-10 08:31N 46°14' W 124°07'5 9.9
2017-Dec-10 08:00N 46°12' W 124°13'4 8.0
2017-Dec-10 07:30N 46°12' W 124°19'0 0.7
2017-Dec-10 07:00N 46°12' W 124°20'2 4.5
2017-Dec-10 06:30N 46°12' W 124°23'3 6.0
2017-Dec-10 06:00N 46°13' W 124°27'3 5.6
2017-Dec-10 05:30N 46°13' W 124°31'5 9.7
2017-Dec-10 05:00N 46°13' W 124°38'4 8.9
2017-Dec-10 04:31N 46°14' W 124°45'510.9
2017-Dec-10 04:00N 46°14' W 124°52'612.4
2017-Dec-10 03:31N 46°15' W 125°01'612.4
2017-Dec-10 03:01N 46°15' W 125°10'612.6
2017-Dec-10 02:31N 46°16' W 125°19'612.5
2017-Dec-10 02:01N 46°16' W 125°28'612.4
2017-Dec-10 01:30N 46°17' W 125°37'612.6
2017-Dec-10 01:00N 46°17' W 125°46'612.7
2017-Dec-10 00:31N 46°18' W 125°55'712.5
2017-Dec-09 23:59N 46°19' W 126°05'612.3
2017-Dec-09 23:30N 46°19' W 126°13'612.3
2017-Dec-09 23:00N 46°20' W 126°22'611.9
2017-Dec-09 22:30N 46°20' W 126°31'612.1
2017-Dec-09 22:00N 46°21' W 126°39'612.0
2017-Dec-09 21:30N 46°21' W 126°48'611.9
2017-Dec-09 21:00N 46°22' W 126°57'611.9
2017-Dec-09 20:30N 46°22' W 127°05'611.5
2017-Dec-09 20:00N 46°23' W 127°14'5313.7
2017-Dec-09 20:00N 46°18' W 127°12'917.8 150 / 251019.010.8 13.011.312.0
2017-Dec-09 19:30N 46°23' W 127°22'711.6
2017-Dec-09 18:55N 46°24' W 127°32'511.4
2017-Dec-09 18:30N 46°25' W 127°38'611.3
2017-Dec-09 17:59N 46°25' W 127°47'611.3
2017-Dec-09 17:27N 46°26' W 127°56'511.3
2017-Dec-09 17:00N 46°26' W 128°03'611.4
2017-Dec-09 16:30N 46°26' W 128°11'3311.8
2017-Dec-09 13:43N 46°29' W 128°59'311.9
2017-Dec-09 13:30N 46°30' W 129°03'811.6
2017-Dec-09 12:49N 46°32' W 129°14'511.4
2017-Dec-09 12:22N 46°33' W 129°21'411.4
2017-Dec-09 12:00N 46°35' W 129°26'611.3
2017-Dec-09 11:30N 46°36' W 129°34'611.5
2017-Dec-09 11:00N 46°38' W 129°42'611.6
2017-Dec-09 10:30N 46°40' W 129°50'2810.8
2017-Dec-09 07:53N 46°49' W 130°30'511.2
2017-Dec-09 07:29N 46°51' W 130°36'1911.0
2017-Dec-09 05:44N 46°57' W 131°03'310.9
2017-Dec-09 05:28N 46°58' W 131°07'511.1
2017-Dec-09 04:59N 46°59' W 131°14'9210.2
2017-Dec-08 20:00N 47°24' W 133°24'24110.0 150 / 391009.0 5.4 12.012.011.0
2017-Dec-07 20:00N 48°24' W 139°12'208 9.1 150 / 441004.010.8 10.010.0 9.0
2017-Dec-06 21:00N 48°54' W 144°24'   160 / 13999.010.8 8.0 6.0 9.0

Dump ship's entire track history